sensor_id;sensor_type;location;lat;lon;timestamp;temperature;humidity
17208;DHT22;8720;48.488;9.202;2023-05-16T00:01:42;12.90;83.30
17208;DHT22;8720;48.488;9.202;2023-05-16T00:04:11;12.90;83.20
17208;DHT22;8720;48.488;9.202;2023-05-16T00:06:38;12.90;82.30
17208;DHT22;8720;48.488;9.202;2023-05-16T00:09:05;12.90;82.80
17208;DHT22;8720;48.488;9.202;2023-05-16T00:11:33;12.90;82.80
17208;DHT22;8720;48.488;9.202;2023-05-16T00:14:00;12.90;82.80
17208;DHT22;8720;48.488;9.202;2023-05-16T00:16:27;12.90;82.80
17208;DHT22;8720;48.488;9.202;2023-05-16T00:18:55;12.90;82.60
17208;DHT22;8720;48.488;9.202;2023-05-16T00:21:24;12.90;82.50
17208;DHT22;8720;48.488;9.202;2023-05-16T00:23:51;12.90;82.20
17208;DHT22;8720;48.488;9.202;2023-05-16T00:26:18;12.90;82.50
17208;DHT22;8720;48.488;9.202;2023-05-16T00:28:46;12.90;82.80
17208;DHT22;8720;48.488;9.202;2023-05-16T00:31:14;12.80;82.00
17208;DHT22;8720;48.488;9.202;2023-05-16T00:33:41;12.80;81.80
17208;DHT22;8720;48.488;9.202;2023-05-16T00:36:08;12.80;81.70
17208;DHT22;8720;48.488;9.202;2023-05-16T00:38:37;12.80;81.60
17208;DHT22;8720;48.488;9.202;2023-05-16T00:41:04;12.80;81.40
17208;DHT22;8720;48.488;9.202;2023-05-16T00:43:32;12.80;82.10
17208;DHT22;8720;48.488;9.202;2023-05-16T00:46:00;12.70;82.10
17208;DHT22;8720;48.488;9.202;2023-05-16T00:48:27;12.70;82.30
17208;DHT22;8720;48.488;9.202;2023-05-16T00:50:55;12.70;82.40
17208;DHT22;8720;48.488;9.202;2023-05-16T00:53:22;12.70;82.50
17208;DHT22;8720;48.488;9.202;2023-05-16T00:55:52;12.70;82.50
17208;DHT22;8720;48.488;9.202;2023-05-16T00:58:21;12.70;82.20
17208;DHT22;8720;48.488;9.202;2023-05-16T01:00:50;12.70;82.50
17208;DHT22;8720;48.488;9.202;2023-05-16T01:03:18;12.70;82.80
17208;DHT22;8720;48.488;9.202;2023-05-16T01:05:46;12.70;82.80
17208;DHT22;8720;48.488;9.202;2023-05-16T01:08:14;12.70;82.90
17208;DHT22;8720;48.488;9.202;2023-05-16T01:10:49;12.70;82.80
17208;DHT22;8720;48.488;9.202;2023-05-16T01:13:30;12.70;81.90
17208;DHT22;8720;48.488;9.202;2023-05-16T01:16:09;12.70;81.70
17208;DHT22;8720;48.488;9.202;2023-05-16T01:18:51;12.70;81.90
17208;DHT22;8720;48.488;9.202;2023-05-16T01:21:41;12.70;81.70
17208;DHT22;8720;48.488;9.202;2023-05-16T01:24:22;12.70;81.80
17208;DHT22;8720;48.488;9.202;2023-05-16T01:26:55;12.70;81.90
17208;DHT22;8720;48.488;9.202;2023-05-16T01:29:25;12.70;82.60
17208;DHT22;8720;48.488;9.202;2023-05-16T01:31:52;12.70;83.00
17208;DHT22;8720;48.488;9.202;2023-05-16T01:34:20;12.70;83.10
17208;DHT22;8720;48.488;9.202;2023-05-16T01:36:53;12.70;83.40
17208;DHT22;8720;48.488;9.202;2023-05-16T01:39:35;12.70;83.00
17208;DHT22;8720;48.488;9.202;2023-05-16T01:42:13;12.70;83.20
17208;DHT22;8720;48.488;9.202;2023-05-16T01:44:45;12.70;82.90
17208;DHT22;8720;48.488;9.202;2023-05-16T01:47:20;12.70;83.50
17208;DHT22;8720;48.488;9.202;2023-05-16T01:49:58;12.70;84.20
17208;DHT22;8720;48.488;9.202;2023-05-16T01:52:37;12.70;83.10
17208;DHT22;8720;48.488;9.202;2023-05-16T01:55:10;12.70;83.50
17208;DHT22;8720;48.488;9.202;2023-05-16T01:57:44;12.80;83.80
17208;DHT22;8720;48.488;9.202;2023-05-16T02:05:38;12.80;83.80
17208;DHT22;8720;48.488;9.202;2023-05-16T02:08:06;12.80;83.60
17208;DHT22;8720;48.488;9.202;2023-05-16T02:10:34;12.80;84.00
17208;DHT22;8720;48.488;9.202;2023-05-16T02:13:02;12.90;84.30
17208;DHT22;8720;48.488;9.202;2023-05-16T02:15:30;12.90;83.60
17208;DHT22;8720;48.488;9.202;2023-05-16T02:17:58;12.90;84.20
17208;DHT22;8720;48.488;9.202;2023-05-16T02:20:25;12.90;84.30
17208;DHT22;8720;48.488;9.202;2023-05-16T02:22:53;12.90;84.40
17208;DHT22;8720;48.488;9.202;2023-05-16T02:25:20;12.90;84.40
17208;DHT22;8720;48.488;9.202;2023-05-16T02:27:47;12.90;84.40
17208;DHT22;8720;48.488;9.202;2023-05-16T02:30:16;13.00;84.60
17208;DHT22;8720;48.488;9.202;2023-05-16T02:32:44;13.00;84.10
17208;DHT22;8720;48.488;9.202;2023-05-16T02:35:11;13.00;84.70
17208;DHT22;8720;48.488;9.202;2023-05-16T02:37:39;13.00;84.80
17208;DHT22;8720;48.488;9.202;2023-05-16T02:40:07;13.10;84.40
17208;DHT22;8720;48.488;9.202;2023-05-16T02:42:35;13.10;84.30
17208;DHT22;8720;48.488;9.202;2023-05-16T02:45:03;13.10;84.70
17208;DHT22;8720;48.488;9.202;2023-05-16T02:47:33;13.10;84.80
17208;DHT22;8720;48.488;9.202;2023-05-16T02:50:00;13.10;84.50
17208;DHT22;8720;48.488;9.202;2023-05-16T02:52:28;13.10;85.10
17208;DHT22;8720;48.488;9.202;2023-05-16T02:54:55;13.20;85.30
17208;DHT22;8720;48.488;9.202;2023-05-16T02:57:23;13.20;85.30
17208;DHT22;8720;48.488;9.202;2023-05-16T02:59:50;13.20;85.30
17208;DHT22;8720;48.488;9.202;2023-05-16T03:02:17;13.20;85.30
17208;DHT22;8720;48.488;9.202;2023-05-16T03:04:46;13.20;85.30
17208;DHT22;8720;48.488;9.202;2023-05-16T03:07:13;13.30;84.90
17208;DHT22;8720;48.488;9.202;2023-05-16T03:09:40;13.30;85.50
17208;DHT22;8720;48.488;9.202;2023-05-16T03:12:08;13.30;85.50
17208;DHT22;8720;48.488;9.202;2023-05-16T03:14:35;13.30;85.30
17208;DHT22;8720;48.488;9.202;2023-05-16T03:17:02;13.40;85.50
17208;DHT22;8720;48.488;9.202;2023-05-16T03:19:30;13.40;85.50
17208;DHT22;8720;48.488;9.202;2023-05-16T03:22:00;13.40;85.50
17208;DHT22;8720;48.488;9.202;2023-05-16T03:24:28;13.40;84.90
17208;DHT22;8720;48.488;9.202;2023-05-16T03:26:56;13.40;85.60
17208;DHT22;8720;48.488;9.202;2023-05-16T03:29:23;13.40;85.40
17208;DHT22;8720;48.488;9.202;2023-05-16T03:31:51;13.40;85.60
17208;DHT22;8720;48.488;9.202;2023-05-16T03:34:19;13.50;85.70
17208;DHT22;8720;48.488;9.202;2023-05-16T03:36:47;13.50;85.50
17208;DHT22;8720;48.488;9.202;2023-05-16T03:39:16;13.50;85.10
17208;DHT22;8720;48.488;9.202;2023-05-16T03:41:43;13.50;84.40
17208;DHT22;8720;48.488;9.202;2023-05-16T03:44:11;13.60;85.20
17208;DHT22;8720;48.488;9.202;2023-05-16T03:46:38;13.60;85.00
17208;DHT22;8720;48.488;9.202;2023-05-16T03:49:05;13.60;85.00
17208;DHT22;8720;48.488;9.202;2023-05-16T03:51:33;13.60;85.00
17208;DHT22;8720;48.488;9.202;2023-05-16T03:54:00;13.60;85.20
17208;DHT22;8720;48.488;9.202;2023-05-16T03:56:29;13.60;85.30
17208;DHT22;8720;48.488;9.202;2023-05-16T03:58:56;13.60;84.80
17208;DHT22;8720;48.488;9.202;2023-05-16T04:01:23;13.70;85.40
17208;DHT22;8720;48.488;9.202;2023-05-16T04:03:50;13.70;85.30
17208;DHT22;8720;48.488;9.202;2023-05-16T04:06:18;13.70;85.20
17208;DHT22;8720;48.488;9.202;2023-05-16T04:08:45;13.70;85.30
17208;DHT22;8720;48.488;9.202;2023-05-16T04:11:13;13.70;85.30
17208;DHT22;8720;48.488;9.202;2023-05-16T04:13:41;13.70;85.30
17208;DHT22;8720;48.488;9.202;2023-05-16T04:16:09;13.80;84.90
17208;DHT22;8720;48.488;9.202;2023-05-16T04:18:36;13.80;85.40
17208;DHT22;8720;48.488;9.202;2023-05-16T04:21:04;13.80;85.30
17208;DHT22;8720;48.488;9.202;2023-05-16T04:23:32;13.80;85.10
17208;DHT22;8720;48.488;9.202;2023-05-16T04:25:59;13.80;85.40
17208;DHT22;8720;48.488;9.202;2023-05-16T04:28:26;13.90;85.60
17208;DHT22;8720;48.488;9.202;2023-05-16T04:30:55;13.90;85.50
17208;DHT22;8720;48.488;9.202;2023-05-16T04:33:22;13.90;84.70
17208;DHT22;8720;48.488;9.202;2023-05-16T04:35:50;13.90;85.10
17208;DHT22;8720;48.488;9.202;2023-05-16T04:38:17;13.90;85.10
17208;DHT22;8720;48.488;9.202;2023-05-16T04:40:44;14.00;85.30
17208;DHT22;8720;48.488;9.202;2023-05-16T04:43:15;14.00;85.40
17208;DHT22;8720;48.488;9.202;2023-05-16T04:45:42;13.90;85.40
17208;DHT22;8720;48.488;9.202;2023-05-16T04:48:11;13.90;85.30
17208;DHT22;8720;48.488;9.202;2023-05-16T04:50:38;13.90;85.30
17208;DHT22;8720;48.488;9.202;2023-05-16T04:53:06;14.00;85.00
17208;DHT22;8720;48.488;9.202;2023-05-16T04:55:33;14.00;84.90
17208;DHT22;8720;48.488;9.202;2023-05-16T04:58:00;14.00;84.60
17208;DHT22;8720;48.488;9.202;2023-05-16T05:00:28;14.00;84.30
17208;DHT22;8720;48.488;9.202;2023-05-16T05:02:57;14.00;84.20
17208;DHT22;8720;48.488;9.202;2023-05-16T05:05:26;14.00;83.90
17208;DHT22;8720;48.488;9.202;2023-05-16T05:07:53;14.00;82.60
17208;DHT22;8720;48.488;9.202;2023-05-16T05:10:20;14.00;83.20
17208;DHT22;8720;48.488;9.202;2023-05-16T05:12:48;14.00;83.20
17208;DHT22;8720;48.488;9.202;2023-05-16T05:15:15;14.00;82.80
17208;DHT22;8720;48.488;9.202;2023-05-16T05:17:44;14.00;82.20
17208;DHT22;8720;48.488;9.202;2023-05-16T05:20:11;14.00;82.40
17208;DHT22;8720;48.488;9.202;2023-05-16T05:22:40;14.00;82.10
17208;DHT22;8720;48.488;9.202;2023-05-16T05:25:08;14.00;81.80
17208;DHT22;8720;48.488;9.202;2023-05-16T05:27:35;14.00;82.10
17208;DHT22;8720;48.488;9.202;2023-05-16T05:30:04;14.00;82.30
17208;DHT22;8720;48.488;9.202;2023-05-16T05:32:32;14.00;82.20
17208;DHT22;8720;48.488;9.202;2023-05-16T05:34:59;14.00;82.60
17208;DHT22;8720;48.488;9.202;2023-05-16T05:37:26;14.00;82.30
17208;DHT22;8720;48.488;9.202;2023-05-16T05:39:55;14.00;81.60
17208;DHT22;8720;48.488;9.202;2023-05-16T05:42:22;14.00;80.70
17208;DHT22;8720;48.488;9.202;2023-05-16T05:44:50;14.00;81.60
17208;DHT22;8720;48.488;9.202;2023-05-16T05:47:17;14.00;81.70
17208;DHT22;8720;48.488;9.202;2023-05-16T05:49:45;14.00;81.60
17208;DHT22;8720;48.488;9.202;2023-05-16T05:52:12;14.00;81.70
17208;DHT22;8720;48.488;9.202;2023-05-16T05:54:39;14.00;81.10
17208;DHT22;8720;48.488;9.202;2023-05-16T05:57:10;13.90;80.90
17208;DHT22;8720;48.488;9.202;2023-05-16T05:59:37;13.90;80.20
17208;DHT22;8720;48.488;9.202;2023-05-16T06:02:05;13.90;81.10
17208;DHT22;8720;48.488;9.202;2023-05-16T06:04:32;13.90;81.30
17208;DHT22;8720;48.488;9.202;2023-05-16T06:07:00;13.90;81.50
17208;DHT22;8720;48.488;9.202;2023-05-16T06:09:27;13.90;81.50
17208;DHT22;8720;48.488;9.202;2023-05-16T06:11:55;13.90;81.50
17208;DHT22;8720;48.488;9.202;2023-05-16T06:14:24;14.00;81.30
17208;DHT22;8720;48.488;9.202;2023-05-16T06:16:51;13.90;80.10
17208;DHT22;8720;48.488;9.202;2023-05-16T06:19:18;13.90;81.00
17208;DHT22;8720;48.488;9.202;2023-05-16T06:21:46;13.90;80.90
17208;DHT22;8720;48.488;9.202;2023-05-16T06:24:13;13.90;81.10
17208;DHT22;8720;48.488;9.202;2023-05-16T06:26:40;13.90;81.70
17208;DHT22;8720;48.488;9.202;2023-05-16T06:29:10;14.00;81.90
17208;DHT22;8720;48.488;9.202;2023-05-16T06:31:39;13.90;81.20
17208;DHT22;8720;48.488;9.202;2023-05-16T06:34:06;13.90;80.80
17208;DHT22;8720;48.488;9.202;2023-05-16T06:36:34;13.90;81.40
17208;DHT22;8720;48.488;9.202;2023-05-16T06:39:01;13.90;81.50
17208;DHT22;8720;48.488;9.202;2023-05-16T06:41:29;14.00;81.60
17208;DHT22;8720;48.488;9.202;2023-05-16T06:43:56;13.90;81.80
17208;DHT22;8720;48.488;9.202;2023-05-16T06:46:24;13.90;82.00
17208;DHT22;8720;48.488;9.202;2023-05-16T06:48:53;14.00;82.20
17208;DHT22;8720;48.488;9.202;2023-05-16T06:51:20;14.00;82.10
17208;DHT22;8720;48.488;9.202;2023-05-16T06:53:47;14.00;82.60
17208;DHT22;8720;48.488;9.202;2023-05-16T06:56:14;14.00;82.60
17208;DHT22;8720;48.488;9.202;2023-05-16T06:58:42;14.00;82.50
17208;DHT22;8720;48.488;9.202;2023-05-16T07:01:09;14.00;82.80
17208;DHT22;8720;48.488;9.202;2023-05-16T07:03:36;14.00;82.90
17208;DHT22;8720;48.488;9.202;2023-05-16T07:06:06;14.10;83.20
17208;DHT22;8720;48.488;9.202;2023-05-16T07:08:33;14.10;82.50
17208;DHT22;8720;48.488;9.202;2023-05-16T07:11:01;14.10;83.10
17208;DHT22;8720;48.488;9.202;2023-05-16T07:13:29;14.10;82.70
17208;DHT22;8720;48.488;9.202;2023-05-16T07:15:56;14.20;82.70
17208;DHT22;8720;48.488;9.202;2023-05-16T07:18:23;14.20;82.70
17208;DHT22;8720;48.488;9.202;2023-05-16T07:20:50;14.20;82.50
17208;DHT22;8720;48.488;9.202;2023-05-16T07:23:19;14.20;82.50
17208;DHT22;8720;48.488;9.202;2023-05-16T07:25:47;14.30;81.70
17208;DHT22;8720;48.488;9.202;2023-05-16T07:28:14;14.30;81.70
17208;DHT22;8720;48.488;9.202;2023-05-16T07:30:41;14.30;82.60
17208;DHT22;8720;48.488;9.202;2023-05-16T07:33:09;14.30;81.90
17208;DHT22;8720;48.488;9.202;2023-05-16T07:35:36;14.30;81.50
17208;DHT22;8720;48.488;9.202;2023-05-16T07:38:03;14.30;81.20
17208;DHT22;8720;48.488;9.202;2023-05-16T07:40:32;14.30;80.90
17208;DHT22;8720;48.488;9.202;2023-05-16T07:42:59;14.30;79.60
17208;DHT22;8720;48.488;9.202;2023-05-16T07:45:27;14.30;80.50
17208;DHT22;8720;48.488;9.202;2023-05-16T07:47:55;14.30;80.40
17208;DHT22;8720;48.488;9.202;2023-05-16T07:50:22;14.30;80.30
17208;DHT22;8720;48.488;9.202;2023-05-16T07:52:49;14.30;79.80
17208;DHT22;8720;48.488;9.202;2023-05-16T07:55:17;14.30;79.80
17208;DHT22;8720;48.488;9.202;2023-05-16T07:57:45;14.30;79.70
17208;DHT22;8720;48.488;9.202;2023-05-16T08:00:14;14.30;78.40
17208;DHT22;8720;48.488;9.202;2023-05-16T08:02:42;14.30;79.00
17208;DHT22;8720;48.488;9.202;2023-05-16T08:05:09;14.20;79.20
17208;DHT22;8720;48.488;9.202;2023-05-16T08:07:37;14.30;79.50
17208;DHT22;8720;48.488;9.202;2023-05-16T08:10:05;14.20;79.30
17208;DHT22;8720;48.488;9.202;2023-05-16T08:12:32;14.30;78.80
17208;DHT22;8720;48.488;9.202;2023-05-16T08:15:02;14.30;79.30
17208;DHT22;8720;48.488;9.202;2023-05-16T08:17:29;14.20;78.30
17208;DHT22;8720;48.488;9.202;2023-05-16T08:19:56;14.30;79.10
17208;DHT22;8720;48.488;9.202;2023-05-16T08:22:26;14.20;79.20
17208;DHT22;8720;48.488;9.202;2023-05-16T08:24:53;14.20;79.00
17208;DHT22;8720;48.488;9.202;2023-05-16T08:27:22;14.20;79.00
17208;DHT22;8720;48.488;9.202;2023-05-16T08:29:50;14.20;78.90
17208;DHT22;8720;48.488;9.202;2023-05-16T08:32:18;14.20;79.20
17208;DHT22;8720;48.488;9.202;2023-05-16T08:34:47;14.20;78.50
17208;DHT22;8720;48.488;9.202;2023-05-16T08:37:15;14.20;79.60
17208;DHT22;8720;48.488;9.202;2023-05-16T08:39:42;14.20;78.80
17208;DHT22;8720;48.488;9.202;2023-05-16T08:42:09;14.20;78.70
17208;DHT22;8720;48.488;9.202;2023-05-16T08:44:37;14.20;78.40
17208;DHT22;8720;48.488;9.202;2023-05-16T08:47:12;14.20;77.80
17208;DHT22;8720;48.488;9.202;2023-05-16T08:49:46;14.20;75.50
17208;DHT22;8720;48.488;9.202;2023-05-16T08:52:18;14.20;75.60
17208;DHT22;8720;48.488;9.202;2023-05-16T08:54:49;14.20;75.30
17208;DHT22;8720;48.488;9.202;2023-05-16T08:57:18;14.10;75.50
17208;DHT22;8720;48.488;9.202;2023-05-16T08:59:46;14.10;75.70
17208;DHT22;8720;48.488;9.202;2023-05-16T09:02:13;14.10;76.20
17208;DHT22;8720;48.488;9.202;2023-05-16T09:04:42;14.10;76.40
17208;DHT22;8720;48.488;9.202;2023-05-16T09:07:13;14.10;76.00
17208;DHT22;8720;48.488;9.202;2023-05-16T09:09:40;14.10;75.80
17208;DHT22;8720;48.488;9.202;2023-05-16T09:12:08;14.10;75.70
17208;DHT22;8720;48.488;9.202;2023-05-16T09:14:36;14.10;75.50
17208;DHT22;8720;48.488;9.202;2023-05-16T09:17:04;14.10;75.80
17208;DHT22;8720;48.488;9.202;2023-05-16T09:19:36;14.10;75.20
17208;DHT22;8720;48.488;9.202;2023-05-16T09:22:08;14.10;74.10
17208;DHT22;8720;48.488;9.202;2023-05-16T09:24:44;14.10;74.50
17208;DHT22;8720;48.488;9.202;2023-05-16T09:27:13;14.10;74.70
17208;DHT22;8720;48.488;9.202;2023-05-16T09:29:42;14.10;75.20
17208;DHT22;8720;48.488;9.202;2023-05-16T09:32:12;14.10;75.40
17208;DHT22;8720;48.488;9.202;2023-05-16T09:34:42;14.10;75.00
17208;DHT22;8720;48.488;9.202;2023-05-16T09:37:13;14.10;75.00
17208;DHT22;8720;48.488;9.202;2023-05-16T09:39:46;14.10;76.10
17208;DHT22;8720;48.488;9.202;2023-05-16T09:42:16;14.10;74.70
17208;DHT22;8720;48.488;9.202;2023-05-16T09:44:45;14.10;75.90
17208;DHT22;8720;48.488;9.202;2023-05-16T09:47:14;14.10;75.20
17208;DHT22;8720;48.488;9.202;2023-05-16T09:49:43;14.10;75.90
17208;DHT22;8720;48.488;9.202;2023-05-16T09:52:12;14.00;75.50
17208;DHT22;8720;48.488;9.202;2023-05-16T09:54:40;14.00;75.80
17208;DHT22;8720;48.488;9.202;2023-05-16T09:57:09;13.90;76.60
17208;DHT22;8720;48.488;9.202;2023-05-16T09:59:37;13.90;76.60
17208;DHT22;8720;48.488;9.202;2023-05-16T10:02:06;13.90;77.50
17208;DHT22;8720;48.488;9.202;2023-05-16T10:04:33;13.90;77.10
17208;DHT22;8720;48.488;9.202;2023-05-16T10:07:02;13.90;77.60
17208;DHT22;8720;48.488;9.202;2023-05-16T10:09:32;13.80;76.90
17208;DHT22;8720;48.488;9.202;2023-05-16T10:12:01;13.80;76.00
17208;DHT22;8720;48.488;9.202;2023-05-16T10:14:34;13.80;76.50
17208;DHT22;8720;48.488;9.202;2023-05-16T10:17:03;13.80;75.80
17208;DHT22;8720;48.488;9.202;2023-05-16T10:19:36;13.80;77.10
17208;DHT22;8720;48.488;9.202;2023-05-16T10:22:05;13.80;76.50
17208;DHT22;8720;48.488;9.202;2023-05-16T10:24:38;13.80;77.30
17208;DHT22;8720;48.488;9.202;2023-05-16T10:27:10;13.80;76.30
17208;DHT22;8720;48.488;9.202;2023-05-16T10:29:39;13.80;77.30
17208;DHT22;8720;48.488;9.202;2023-05-16T10:32:07;13.80;76.90
17208;DHT22;8720;48.488;9.202;2023-05-16T10:34:37;13.80;77.80
17208;DHT22;8720;48.488;9.202;2023-05-16T10:37:06;13.80;77.60
17208;DHT22;8720;48.488;9.202;2023-05-16T10:39:35;13.80;77.80
17208;DHT22;8720;48.488;9.202;2023-05-16T10:42:05;13.80;77.20
17208;DHT22;8720;48.488;9.202;2023-05-16T10:44:33;13.80;77.40
17208;DHT22;8720;48.488;9.202;2023-05-16T10:47:06;13.80;77.30
17208;DHT22;8720;48.488;9.202;2023-05-16T10:49:33;13.80;77.50
17208;DHT22;8720;48.488;9.202;2023-05-16T10:52:03;13.80;78.40
17208;DHT22;8720;48.488;9.202;2023-05-16T10:54:35;13.90;76.90
17208;DHT22;8720;48.488;9.202;2023-05-16T10:57:05;13.90;76.70
17208;DHT22;8720;48.488;9.202;2023-05-16T10:59:43;13.90;77.00
17208;DHT22;8720;48.488;9.202;2023-05-16T11:02:26;13.90;75.40
17208;DHT22;8720;48.488;9.202;2023-05-16T11:04:56;13.90;75.10
17208;DHT22;8720;48.488;9.202;2023-05-16T11:07:29;13.90;76.70
17208;DHT22;8720;48.488;9.202;2023-05-16T11:10:06;13.90;77.00
17208;DHT22;8720;48.488;9.202;2023-05-16T11:12:36;13.90;76.20
17208;DHT22;8720;48.488;9.202;2023-05-16T11:15:20;13.90;77.10
17208;DHT22;8720;48.488;9.202;2023-05-16T11:17:50;13.90;75.70
17208;DHT22;8720;48.488;9.202;2023-05-16T11:20:30;13.90;77.60
17208;DHT22;8720;48.488;9.202;2023-05-16T11:23:21;13.90;76.90
17208;DHT22;8720;48.488;9.202;2023-05-16T11:25:55;13.90;74.70
17208;DHT22;8720;48.488;9.202;2023-05-16T11:28:26;13.90;76.20
17208;DHT22;8720;48.488;9.202;2023-05-16T11:30:56;13.90;77.50
17208;DHT22;8720;48.488;9.202;2023-05-16T11:33:25;13.90;76.70
17208;DHT22;8720;48.488;9.202;2023-05-16T11:36:02;13.90;78.20
17208;DHT22;8720;48.488;9.202;2023-05-16T11:38:31;13.90;76.90
17208;DHT22;8720;48.488;9.202;2023-05-16T11:41:06;13.90;78.40
17208;DHT22;8720;48.488;9.202;2023-05-16T11:43:41;13.90;77.10
17208;DHT22;8720;48.488;9.202;2023-05-16T11:46:14;13.90;76.90
17208;DHT22;8720;48.488;9.202;2023-05-16T11:48:42;14.00;77.40
17208;DHT22;8720;48.488;9.202;2023-05-16T11:51:10;14.00;79.30
17208;DHT22;8720;48.488;9.202;2023-05-16T11:53:39;14.00;79.70
17208;DHT22;8720;48.488;9.202;2023-05-16T11:56:07;14.10;80.20
17208;DHT22;8720;48.488;9.202;2023-05-16T11:58:35;14.10;79.80
17208;DHT22;8720;48.488;9.202;2023-05-16T12:01:03;14.10;80.10
17208;DHT22;8720;48.488;9.202;2023-05-16T12:03:32;14.20;80.00
17208;DHT22;8720;48.488;9.202;2023-05-16T12:06:01;14.20;79.30
17208;DHT22;8720;48.488;9.202;2023-05-16T12:08:28;14.30;80.30
17208;DHT22;8720;48.488;9.202;2023-05-16T12:10:56;14.30;80.00
17208;DHT22;8720;48.488;9.202;2023-05-16T12:13:24;14.30;79.60
17208;DHT22;8720;48.488;9.202;2023-05-16T12:15:52;14.40;78.80
17208;DHT22;8720;48.488;9.202;2023-05-16T12:18:20;14.40;79.20
17208;DHT22;8720;48.488;9.202;2023-05-16T12:20:50;14.40;78.90
17208;DHT22;8720;48.488;9.202;2023-05-16T12:23:18;14.40;77.80
17208;DHT22;8720;48.488;9.202;2023-05-16T12:25:46;14.40;78.70
17208;DHT22;8720;48.488;9.202;2023-05-16T12:28:14;14.40;77.90
17208;DHT22;8720;48.488;9.202;2023-05-16T12:30:43;14.40;78.50
17208;DHT22;8720;48.488;9.202;2023-05-16T12:33:13;14.40;77.90
17208;DHT22;8720;48.488;9.202;2023-05-16T12:35:44;14.40;77.70
17208;DHT22;8720;48.488;9.202;2023-05-16T12:38:14;14.40;77.40
17208;DHT22;8720;48.488;9.202;2023-05-16T12:40:43;14.30;76.90
17208;DHT22;8720;48.488;9.202;2023-05-16T12:43:14;14.30;77.50
17208;DHT22;8720;48.488;9.202;2023-05-16T12:45:42;14.30;76.90
17208;DHT22;8720;48.488;9.202;2023-05-16T12:48:16;14.20;78.00
17208;DHT22;8720;48.488;9.202;2023-05-16T12:50:43;14.20;78.30
17208;DHT22;8720;48.488;9.202;2023-05-16T12:53:14;14.10;78.50
17208;DHT22;8720;48.488;9.202;2023-05-16T12:55:42;14.10;77.80
17208;DHT22;8720;48.488;9.202;2023-05-16T12:58:10;14.10;78.40
17208;DHT22;8720;48.488;9.202;2023-05-16T13:00:38;14.10;78.70
17208;DHT22;8720;48.488;9.202;2023-05-16T13:03:05;14.10;78.90
17208;DHT22;8720;48.488;9.202;2023-05-16T13:05:33;14.10;78.90
17208;DHT22;8720;48.488;9.202;2023-05-16T13:08:01;14.10;79.00
17208;DHT22;8720;48.488;9.202;2023-05-16T13:10:30;14.10;78.70
17208;DHT22;8720;48.488;9.202;2023-05-16T13:12:57;14.10;78.00
17208;DHT22;8720;48.488;9.202;2023-05-16T13:15:27;14.10;78.70
17208;DHT22;8720;48.488;9.202;2023-05-16T13:17:54;14.10;78.80
17208;DHT22;8720;48.488;9.202;2023-05-16T13:20:21;14.10;78.30
17208;DHT22;8720;48.488;9.202;2023-05-16T13:22:49;14.10;78.50
17208;DHT22;8720;48.488;9.202;2023-05-16T13:25:16;14.00;78.60
17208;DHT22;8720;48.488;9.202;2023-05-16T13:27:45;14.00;79.00
17208;DHT22;8720;48.488;9.202;2023-05-16T13:30:14;14.00;78.80
17208;DHT22;8720;48.488;9.202;2023-05-16T13:32:41;13.90;79.80
17208;DHT22;8720;48.488;9.202;2023-05-16T13:35:09;13.90;79.50
17208;DHT22;8720;48.488;9.202;2023-05-16T13:37:36;13.90;79.50
17208;DHT22;8720;48.488;9.202;2023-05-16T13:40:05;13.80;79.60
17208;DHT22;8720;48.488;9.202;2023-05-16T13:42:34;13.80;79.70
17208;DHT22;8720;48.488;9.202;2023-05-16T13:45:05;13.80;80.50
17208;DHT22;8720;48.488;9.202;2023-05-16T13:47:33;13.70;80.20
17208;DHT22;8720;48.488;9.202;2023-05-16T13:50:01;13.80;81.10
17208;DHT22;8720;48.488;9.202;2023-05-16T13:52:32;13.80;80.90
17208;DHT22;8720;48.488;9.202;2023-05-16T13:54:59;13.80;81.10
17208;DHT22;8720;48.488;9.202;2023-05-16T13:57:27;13.80;80.30
17208;DHT22;8720;48.488;9.202;2023-05-16T13:59:54;13.90;80.50
17208;DHT22;8720;48.488;9.202;2023-05-16T14:02:23;13.90;80.10
17208;DHT22;8720;48.488;9.202;2023-05-16T14:04:51;13.90;78.30
17208;DHT22;8720;48.488;9.202;2023-05-16T14:07:19;14.00;78.70
17208;DHT22;8720;48.488;9.202;2023-05-16T14:09:46;14.00;77.90
17208;DHT22;8720;48.488;9.202;2023-05-16T14:12:14;13.90;77.20
17208;DHT22;8720;48.488;9.202;2023-05-16T14:14:41;13.90;77.10
17208;DHT22;8720;48.488;9.202;2023-05-16T14:17:08;13.90;77.10
17208;DHT22;8720;48.488;9.202;2023-05-16T14:19:37;13.90;77.10
17208;DHT22;8720;48.488;9.202;2023-05-16T14:22:04;13.80;76.10
17208;DHT22;8720;48.488;9.202;2023-05-16T14:24:32;13.70;76.40
17208;DHT22;8720;48.488;9.202;2023-05-16T14:27:00;13.70;76.70
17208;DHT22;8720;48.488;9.202;2023-05-16T14:29:28;13.70;77.00
17208;DHT22;8720;48.488;9.202;2023-05-16T14:31:55;13.70;76.50
17208;DHT22;8720;48.488;9.202;2023-05-16T14:34:22;13.60;76.20
17208;DHT22;8720;48.488;9.202;2023-05-16T14:36:51;13.60;76.20
17208;DHT22;8720;48.488;9.202;2023-05-16T14:39:18;13.60;75.60
17208;DHT22;8720;48.488;9.202;2023-05-16T14:41:46;13.60;76.70
17208;DHT22;8720;48.488;9.202;2023-05-16T14:44:13;13.60;76.50
17208;DHT22;8720;48.488;9.202;2023-05-16T14:46:40;13.60;76.60
17208;DHT22;8720;48.488;9.202;2023-05-16T14:49:07;13.60;76.70
17208;DHT22;8720;48.488;9.202;2023-05-16T14:51:35;13.60;76.50
17208;DHT22;8720;48.488;9.202;2023-05-16T14:54:04;13.60;76.10
17208;DHT22;8720;48.488;9.202;2023-05-16T14:56:32;13.60;75.00
17208;DHT22;8720;48.488;9.202;2023-05-16T14:58:59;13.50;76.10
17208;DHT22;8720;48.488;9.202;2023-05-16T15:01:27;13.50;76.30
17208;DHT22;8720;48.488;9.202;2023-05-16T15:03:54;13.50;76.30
17208;DHT22;8720;48.488;9.202;2023-05-16T15:06:21;13.50;76.30
17208;DHT22;8720;48.488;9.202;2023-05-16T15:08:49;13.50;76.30
17208;DHT22;8720;48.488;9.202;2023-05-16T15:11:18;13.50;76.70
17208;DHT22;8720;48.488;9.202;2023-05-16T15:13:46;13.50;75.80
17208;DHT22;8720;48.488;9.202;2023-05-16T15:16:14;13.50;75.70
17208;DHT22;8720;48.488;9.202;2023-05-16T15:18:41;13.40;76.00
17208;DHT22;8720;48.488;9.202;2023-05-16T15:21:08;13.40;76.00
17208;DHT22;8720;48.488;9.202;2023-05-16T15:23:35;13.50;76.30
17208;DHT22;8720;48.488;9.202;2023-05-16T15:26:03;13.50;76.30
17208;DHT22;8720;48.488;9.202;2023-05-16T15:28:32;13.50;76.40
17208;DHT22;8720;48.488;9.202;2023-05-16T15:30:59;13.50;75.50
17208;DHT22;8720;48.488;9.202;2023-05-16T15:33:29;13.60;76.40
17208;DHT22;8720;48.488;9.202;2023-05-16T15:35:56;13.60;76.30
17208;DHT22;8720;48.488;9.202;2023-05-16T15:38:23;13.60;76.00
17208;DHT22;8720;48.488;9.202;2023-05-16T15:40:50;13.60;76.50
17208;DHT22;8720;48.488;9.202;2023-05-16T15:43:18;13.60;76.50
17208;DHT22;8720;48.488;9.202;2023-05-16T15:45:46;13.60;76.30
17208;DHT22;8720;48.488;9.202;2023-05-16T15:48:13;13.60;75.30
17208;DHT22;8720;48.488;9.202;2023-05-16T15:50:41;13.60;76.30
17208;DHT22;8720;48.488;9.202;2023-05-16T15:53:08;13.60;76.60
17208;DHT22;8720;48.488;9.202;2023-05-16T15:55:35;13.60;76.70
17208;DHT22;8720;48.488;9.202;2023-05-16T15:58:03;13.70;76.50
17208;DHT22;8720;48.488;9.202;2023-05-16T16:00:30;13.70;76.60